Latest Weather Observations for Nerriga

IDN60801

Issued at 6:23 pm EST Saturday 9 May 2026 (issued every 10 minutes, with the page automatically refreshed every 10 minutes)

About weather observations | Map of weather stations | Latest weather observations for NSW | Other Formats
Station Details ID: 069128 Name: NERRIGA AWS Lat: -35.11 Lon: 150.08 Height: 622.0 m
Data from the previous 72 hours. | See also: Recent months at Nerriga
Date/Time
EST
Temp
°C
App
Temp
°C
Dew
Point
°C
Rel
Hum
%
Delta-T
°C
Wind Press
QNH
hPa
Press
MSL
hPa
Rain since
9am
mm
Dir  Spd
km/h
Gust
km/h
Spd
kts
Gust
kts
09/06:00pm 10.7 8.4 7.4 80 1.6 E 9 13 5 7 1025.5 1025.5 0.0
09/05:30pm 12.0 9.7 7.5 74 2.3 NW 9 11 5 6 1025.0 1025.1 0.0
09/05:00pm 15.3 13.7 6.3 55 4.5 NW 4 4 2 2 1024.6 1024.7 0.0
09/04:30pm 16.6 14.6 6.1 50 5.3 NW 6 6 3 3 1024.3 1024.4 0.0
09/04:00pm 16.8 14.6 6.3 50 5.3 NW 7 9 4 5 1024.2 1024.2 0.0
09/03:30pm 18.0 16.3 7.4 50 5.5 NNW 6 11 3 6 1024.2 1024.2 0.0
09/03:00pm 17.1 15.4 6.0 48 5.6 W 4 13 2 7 1024.1 1024.1 0.0
09/02:30pm 17.4 15.9 6.9 50 5.4 NNW 4 7 2 4 1024.1 1024.1 0.0
09/02:00pm 16.8 14.3 6.6 51 5.2 NNW 9 17 5 9 1024.1 1024.1 0.0
09/01:30pm 16.7 14.8 7.6 55 4.7 NNW 7 13 4 7 1024.2 1024.2 0.0
09/01:00pm 16.2 14.3 7.4 56 4.5 NW 7 13 4 7 1024.4 1024.5 0.0
09/12:30pm 14.9 13.0 6.5 57 4.2 NW 6 11 3 6 1024.8 1024.9 0.0
09/12:00pm 14.9 12.9 7.2 60 3.9 NW 7 13 4 7 1025.2 1025.3 0.0
09/11:30am 14.4 12.4 7.0 61 3.7 NNW 7 13 4 7 1025.7 1025.8 0.0
09/11:00am 14.0 12.4 8.0 67 3.1 NNW 6 9 3 5 1025.9 1026.0 0.0
09/10:30am 12.6 11.4 7.9 73 2.4 NNW 4 9 2 5 1026.0 1026.1 0.0
09/10:00am 11.3 9.9 7.4 77 1.9 NNW 4 6 2 3 1026.1 1026.2 0.0
09/09:30am 10.2 8.9 7.6 84 1.3 NNW 4 7 2 4 1026.0 1026.1 0.0
09/09:00am 8.5 7.3 7.9 96 0.3 NNW 4 4 2 2 1026.1 1026.2 0.0
09/08:30am 7.1 6.0 6.8 98 0.1 NNW 2 4 1 2 1025.8 1025.9 0.0
09/08:00am 6.0 5.0 5.7 98 0.1 CALM 0 0 0 0 1025.5 1025.5 0.0
09/07:30am 3.9 2.1 3.5 97 0.2 NNW 2 6 1 3 1025.1 1025.2 0.0
09/07:00am 3.8 2.4 3.4 97 0.2 CALM 0 0 0 0 1024.7 1024.8 0.0
09/06:30am 3.4 1.9 3.0 97 0.2 CALM 0 2 0 1 1024.4 1024.5 0.0
09/06:00am 3.5 1.3 3.1 97 0.2 NNW 4 6 2 3 1023.9 1023.9 0.0
09/05:30am 3.2 0.9 2.5 95 0.3 W 4 4 2 2 1023.5 1023.6 0.0
09/05:00am 4.5 2.8 3.8 95 0.3 W 2 4 1 2 1023.5 1023.6 0.0
09/04:30am 5.4 4.2 4.5 94 0.4 CALM 0 0 0 0 1023.2 1023.3 0.0
09/04:00am 6.3 5.2 4.9 91 0.6 CALM 0 0 0 0 1023.1 1023.2 0.0
09/03:30am 7.4 6.0 5.7 89 0.8 W 2 4 1 2 1023.2 1023.3 0.0
09/03:00am 7.8 6.8 5.8 87 0.9 CALM 0 0 0 0 1023.3 1023.4 0.0
09/02:30am 7.9 6.6 6.0 88 0.9 W 2 4 1 2 1023.2 1023.3 0.0
09/02:00am 7.9 6.6 5.9 87 0.9 W 2 4 1 2 1023.1 1023.2 0.0
09/01:30am 8.0 6.3 6.0 87 0.9 W 4 6 2 3 1023.2 1023.3 0.0
09/01:00am 7.9 6.5 5.7 86 1.0 W 2 4 1 2 1023.1 1023.2 0.0
09/12:30am 8.4 7.5 5.9 84 1.2 CALM 0 0 0 0 1022.9 1023.0 0.0
09/12:00am 8.6 7.7 6.1 84 1.2 CALM 0 0 0 0 1022.8 1022.8 0.0
 
Date/Time
EST
Temp
°C
App
Temp
°C
Dew
Point
°C
Rel
Hum
%
Delta-T
°C
Wind Press
QNH
hPa
Press
MSL
hPa
Rain since
9am
mm
Dir  Spd
km/h
Gust
km/h
Spd
kts
Gust
kts
08/11:30pm 8.4 7.1 6.0 85 1.1 W 2 4 1 2 1022.7 1022.7 0.0
08/11:00pm 8.8 7.1 5.9 82 1.4 W 4 6 2 3 1022.6 1022.6 0.0
08/10:30pm 8.7 6.6 6.0 83 1.3 W 6 7 3 4 1022.6 1022.6 0.0
08/10:00pm 8.9 6.8 5.8 81 1.5 W 6 7 3 4 1022.7 1022.7 0.0
08/09:30pm 8.9 7.2 5.8 81 1.5 W 4 6 2 3 1022.5 1022.5 0.0
08/09:00pm 9.3 7.2 6.0 80 1.6 W 6 7 3 4 1022.4 1022.4 0.0
08/08:30pm 9.2 7.5 5.9 80 1.6 W 4 7 2 4 1022.3 1022.3 0.0
08/08:00pm 9.4 7.7 5.9 79 1.7 W 4 7 2 4 1022.1 1022.1 0.0
08/07:30pm 9.6 7.4 6.0 78 1.7 W 7 17 4 9 1021.8 1021.9 0.0
08/07:00pm 9.7 6.7 6.1 78 1.7 W 11 17 6 9 1021.4 1021.4 0.0
08/06:30pm 9.8 6.7 5.6 75 2.0 W 11 17 6 9 1020.8 1020.8 0.0
08/06:00pm 10.3 6.9 5.7 73 2.2 W 13 20 7 11 1020.4 1020.4 0.0
08/05:30pm 10.8 7.4 5.8 71 2.4 WNW 13 24 7 13 1019.7 1019.7 0.0
08/05:00pm 11.0 6.1 5.3 68 2.7 W 20 35 11 19 1019.1 1019.1 0.0
08/04:30pm 11.4 6.6 5.5 67 2.8 WNW 20 30 11 16 1018.8 1018.7 0.0
08/04:00pm 12.6 7.8 5.8 63 3.3 W 20 33 11 18 1018.3 1018.3 0.0
08/03:30pm 12.7 6.7 5.1 60 3.6 W 26 43 14 23 1018.1 1018.1 0.0
08/03:00pm 13.0 6.5 4.9 58 3.9 WNW 28 46 15 25 1017.5 1017.5 0.0
08/02:30pm 13.1 5.9 4.8 57 4.0 W 32 46 17 25 1017.0 1016.9 0.0
08/02:00pm 13.2 5.8 4.9 57 4.0 WNW 33 54 18 29 1017.0 1016.9 0.0
08/01:59pm 13.5 6.3 5.7 59 3.8 WNW 33 54 18 29 1017.0 1016.9 0.0
08/01:30pm 13.4 6.2 5.1 57 4.0 WNW 32 44 17 24 1016.8 1016.8 0.0
08/01:08pm 12.9 5.5 4.8 58 3.9 WNW 33 52 18 28 1016.8 1016.8 0.0
08/01:00pm 12.3 4.1 4.5 59 3.7 WNW 37 52 20 28 1016.6 1016.6 0.0
08/12:45pm 12.7 5.0 5.4 61 3.5 W 35 56 19 30 1016.7 1016.7 0.0
08/12:30pm 12.6 4.1 5.1 60 3.6 W 39 52 21 28 1016.8 1016.8 0.0
08/12:05pm 12.5 5.0 4.7 59 3.7 W 33 54 18 29 1017.2 1017.1 0.0
08/12:00pm 12.2 4.9 4.4 59 3.7 W 32 44 17 24 1017.4 1017.3 0.0
08/11:30am 11.9 4.6 4.6 61 3.4 WNW 32 48 17 26 1017.6 1017.6 0.0
08/11:27am 11.5 4.9 4.0 60 3.5 WNW 28 48 15 26 1017.8 1017.8 0.0
08/11:00am 11.3 4.0 4.5 63 3.2 WNW 32 44 17 24 1018.1 1018.1 0.0
08/10:42am 11.4 4.2 5.1 65 3.0 W 32 52 17 28 1018.3 1018.3 0.0
08/10:30am 11.0 2.8 4.5 64 3.0 W 37 50 20 27 1018.1 1018.1 0.0
08/10:00am 10.8 4.3 4.7 66 2.9 WNW 28 37 15 20 1018.1 1018.1 0.0
08/09:30am 10.2 4.1 5.0 70 2.4 WNW 26 37 14 20 1018.2 1018.2 0.0
08/09:00am 8.9 2.3 4.1 72 2.2 W 28 39 15 21 1018.1 1018.1 0.0
08/08:30am 8.0 2.1 3.8 75 1.9 WNW 24 33 13 18 1017.9 1017.9 0.0
08/08:00am 7.0 0.7 3.6 79 1.5 WNW 26 37 14 20 1018.0 1018.0 0.0
08/07:50am 6.7 0.0 3.5 80 1.4 WNW 28 48 15 26 1017.8 1017.8 0.0
08/07:30am 6.0 0.3 3.0 81 1.3 WNW 22 37 12 20 1017.9 1017.9 0.0
08/07:00am 5.8 -1.1 2.8 81 1.3 WNW 28 41 15 22 1017.4 1017.3 0.0
08/06:30am 5.3 0.1 2.7 83 1.1 WNW 19 28 10 15 1017.0 1016.9 0.0
08/06:00am 5.2 0.4 2.4 82 1.2 NW 17 28 9 15 1017.4 1017.3 0.0
08/05:30am 5.0 0.5 2.0 81 1.3 NW 15 24 8 13 1017.5 1017.5 0.0
08/05:00am 5.3 -0.6 1.8 78 1.5 WNW 22 37 12 20 1017.4 1017.3 0.0
08/04:30am 5.7 -0.6 1.8 76 1.6 W 24 37 13 20 1017.4 1017.3 0.0
08/04:03am 5.4 -1.7 1.3 75 1.7 W 28 46 15 25 1017.3 1017.2 0.0
08/04:00am 5.6 -1.9 1.5 75 1.7 W 30 46 16 25 1017.1 1017.0 0.0
08/03:56am 5.5 -1.6 1.6 76 1.6 W 28 46 15 25 1016.8 1016.8 0.0
08/03:30am 4.9 -0.7 1.2 77 1.5 W 20 30 11 16 1017.0 1016.9 0.0
08/03:00am 4.9 -1.1 0.9 75 1.6 W 22 30 12 16 1017.3 1017.2 0.0
08/02:30am 3.1 -0.5 0.3 82 1.1 NW 9 15 5 8 1017.4 1017.3 0.0
08/02:00am 2.8 -0.6 -0.3 80 1.2 NNW 7 13 4 7 1017.8 1017.8 0.0
08/01:30am 4.4 -0.4 0.4 75 1.6 WNW 15 26 8 14 1018.0 1018.0 0.0
08/01:00am 3.9 -0.9 -0.1 75 1.6 WNW 15 20 8 11 1018.1 1018.1 0.0
08/12:30am 4.3 -1.3 -0.3 72 1.8 WNW 19 26 10 14 1018.1 1018.1 0.0
08/12:00am 4.7 -1.1 -0.3 70 2.0 WNW 20 32 11 17 1018.3 1018.3 0.0
 
Date/Time
EST
Temp
°C
App
Temp
°C
Dew
Point
°C
Rel
Hum
%
Delta-T
°C
Wind Press
QNH
hPa
Press
MSL
hPa
Rain since
9am
mm
Dir  Spd
km/h
Gust
km/h
Spd
kts
Gust
kts
07/11:30pm 4.6 -1.3 -0.6 69 2.0 WNW 20 32 11 17 1018.5 1018.5 0.0
07/11:00pm 4.5 -1.2 -0.5 70 1.9 W 19 24 10 13 1018.8 1018.7 0.0
07/10:30pm 4.7 -1.2 -0.7 68 2.1 WNW 20 28 11 15 1018.8 1018.7 0.0
07/10:00pm 4.8 -1.4 -0.4 69 2.0 W 22 35 12 19 1019.0 1019.0 0.0
07/09:30pm 5.0 -0.8 -0.2 69 2.1 W 20 35 11 19 1019.0 1019.0 0.0
07/09:00pm 5.2 -1.0 -0.2 68 2.1 WNW 22 32 12 17 1019.0 1019.0 0.0
07/08:30pm 5.2 -0.6 -0.2 68 2.1 WNW 20 32 11 17 1018.7 1018.6 0.0
07/08:00pm 5.7 -2.0 -0.4 65 2.4 W 30 44 16 24 1018.2 1018.2 0.0
07/07:30pm 5.7 -1.3 -0.4 65 2.4 W 26 35 14 19 1018.0 1018.0 0.0
07/07:00pm 6.0 -0.2 -0.5 63 2.6 W 22 33 12 18 1017.8 1017.8 0.0
07/06:30pm 6.2 -0.4 -0.5 62 2.7 W 24 35 13 19 1017.6 1017.6 0.0
07/06:00pm 6.7 0.7 -1.2 57 3.1 W 20 30 11 16 1017.2 1017.1 0.0
07/05:30pm 7.2 0.1 -1.0 56 3.3 W 26 41 14 22 1016.7 1016.7 0.0
07/05:00pm 8.2 2.1 -2.1 48 4.0 W 20 28 11 15 1016.1 1016.1 0.0
07/04:30pm 9.1 3.0 -2.2 45 4.4 WSW 20 28 11 15 1015.8 1015.7 0.0
07/04:00pm 9.2 1.5 -3.0 42 4.7 W 28 43 15 23 1015.5 1015.4 0.0
07/03:30pm 9.3 1.9 -3.3 41 4.8 W 26 41 14 22 1015.0 1015.0 0.0
07/03:00pm 9.9 2.2 -3.0 40 5.0 WSW 28 41 15 22 1014.8 1014.8 0.0
07/02:48pm 9.9 2.2 -2.7 41 4.9 W 28 39 15 21 1014.7 1014.7 0.0
07/02:30pm 10.4 6.4 0.2 49 4.3 SW 11 15 6 8 1014.7 1014.7 0.0
07/02:00pm 8.1 4.0 -0.4 55 3.5 SW 11 20 6 11 1014.6 1014.5 0.0
07/01:30pm 9.7 2.8 -2.3 43 4.7 W 24 37 13 20 1014.1 1014.0 0.0
07/01:00pm 9.8 3.3 -2.2 43 4.8 WSW 22 35 12 19 1014.2 1014.1 0.0
07/12:30pm 9.0 1.1 -4.5 38 5.0 SW 28 39 15 21 1014.3 1014.2 0.0
07/12:00pm 8.6 1.7 -2.3 46 4.3 WSW 24 39 13 21 1014.3 1014.2 0.0
07/11:30am 9.5 2.7 -1.5 46 4.4 WSW 24 33 13 18 1014.5 1014.4 0.0
07/11:00am 8.4 0.1 -1.4 50 3.9 W 32 46 17 25 1014.6 1014.5 0.0
07/10:30am 9.4 1.3 -0.5 50 4.1 W 32 43 17 23 1014.5 1014.4 0.0
07/10:05am 8.7 1.3 -0.9 51 3.9 W 28 46 15 25 1014.3 1014.2 0.0
07/10:00am 8.8 1.4 -0.5 52 3.8 W 28 39 15 21 1014.3 1014.2 0.0
07/09:46am 8.7 1.4 -0.3 53 3.7 W 28 54 15 29 1014.2 1014.1 0.0
07/09:30am 8.2 -0.9 -0.8 53 3.6 W 37 48 20 26 1014.0 1013.9 0.0
07/09:20am 8.3 1.0 -0.2 55 3.5 W 28 56 15 30 1014.1 1014.0 0.0
07/09:00am 7.9 0.3 0.6 60 3.0 W 30 44 16 24 1013.9 1013.8 0.0
07/08:30am 7.7 -1.2 0.9 62 2.8 W 37 54 20 29 1013.7 1013.6 0.0
07/08:00am 8.2 0.4 2.9 69 2.3 W 33 56 18 30 1013.4 1013.4 0.0
07/07:47am 8.7 2.2 4.7 76 1.8 WNW 28 52 15 28 1013.2 1013.1 0.0
07/07:30am 9.0 4.2 5.4 78 1.7 WNW 20 33 11 18 1012.8 1012.7 0.0
07/07:00am 8.0 3.9 6.3 89 0.8 NW 17 24 9 13 1012.4 1012.3 0.0
07/06:30am 7.6 2.5 6.2 91 0.7 NW 22 28 12 15 1012.3 1012.2 0.0
07/06:00am 8.2 2.7 5.8 85 1.1 NW 24 35 13 19 1012.6 1012.5 0.0
07/05:30am 8.3 2.3 5.1 80 1.5 NW 26 33 14 18 1012.9 1012.8 0.0
07/05:00am 8.0 1.8 4.2 77 1.7 WNW 26 35 14 19 1013.0 1012.9 0.0
07/04:30am 7.9 2.0 4.1 77 1.7 WNW 24 35 13 19 1013.1 1013.0 0.0
07/04:00am 7.9 1.6 3.8 75 1.8 WNW 26 35 14 19 1013.1 1013.0 0.0
07/03:30am 7.2 3.8 3.8 79 1.5 WNW 11 22 6 12 1013.7 1013.6 0.0
07/03:00am 6.4 3.6 3.2 80 1.4 NNW 7 11 4 6 1014.1 1014.0 0.0
07/02:30am 6.5 3.0 3.7 82 1.2 NNW 11 13 6 7 1014.7 1014.7 0.0
07/02:00am 6.6 3.5 3.8 82 1.2 NNW 9 13 5 7 1014.9 1014.9 0.0
07/01:30am 7.0 3.2 4.0 81 1.3 NW 13 19 7 10 1015.1 1015.1 0.0
07/01:00am 7.6 3.6 4.9 83 1.2 NW 15 24 8 13 1015.4 1015.3 0.0
07/12:30am 6.7 3.9 5.0 89 0.8 N 9 13 5 7 1015.5 1015.4 0.0
07/12:00am 7.0 3.8 5.3 89 0.8 NW 11 15 6 8 1015.9 1015.8 0.0
 
Date/Time
EST
Temp
°C
App
Temp
°C
Dew
Point
°C
Rel
Hum
%
Delta-T
°C
Wind Press
QNH
hPa
Press
MSL
hPa
Rain since
9am
mm
Dir  Spd
km/h
Gust
km/h
Spd
kts
Gust
kts
06/11:30pm 7.7 3.8 5.3 85 1.1 NW 15 20 8 11 1015.9 1015.8 0.0
06/11:00pm 8.0 4.2 5.6 85 1.1 NW 15 20 8 11 1015.9 1015.8 0.0
06/10:30pm 7.8 4.3 5.4 85 1.1 WNW 13 22 7 12 1016.2 1016.2 0.0
06/10:00pm 8.9 4.7 5.8 81 1.5 WNW 17 22 9 12 1016.5 1016.5 0.0
06/09:30pm 9.0 4.9 6.3 83 1.3 WNW 17 24 9 13 1016.6 1016.6 0.0
06/09:00pm 9.1 6.4 5.8 80 1.6 NW 9 13 5 7 1016.8 1016.8 0.0
06/08:30pm 9.5 6.4 5.5 76 1.9 NW 11 17 6 9 1017.2 1017.1 0.0
06/08:00pm 10.9 5.9 6.3 73 2.2 WNW 22 33 12 18 1017.2 1017.1 0.0
06/07:30pm 11.2 7.2 6.7 74 2.2 WNW 17 28 9 15 1017.2 1017.1 0.0
06/07:00pm 11.7 8.4 6.6 71 2.5 W 13 19 7 10 1017.3 1017.2 0.0
06/06:30pm 12.1 8.6 5.5 64 3.2 WNW 13 15 7 8 1017.2 1017.1 0.0

Other formats

Comma delimited format used in spreadsheet applications
http://www.bom.gov.au/fwo/IDN60801/IDN60801.94943.axf

JavaScript Object Notation format (JSON) in row-major order
http://www.bom.gov.au/fwo/IDN60801/IDN60801.94943.json

Data quality

Most of these data are generated automatically and are frequently updated. Quality checks on data are not normally performed. It is possible for incorrect values to appear. Refer to information at About Latest Weather Observations and please check the disclaimer before using these data.